Aviation Digital Data Service (ADDS)

Output produced by METARs form (2231 UTC 30 March 2017)
found at http://www.aviationweather.gov/adds/metars/
 
GGOV 302200Z 28003KT CAVOK 27/21 Q1012 NOSIG
TAF GGOV 301100Z 3012/3112 22009KT 8000 NSC